sensor_id;sensor_type;location;lat;lon;timestamp;P1;durP1;ratioP1;P2;durP2;ratioP2
1026;SDS011;502;48.746;9.214;2022-07-25T00:02:10;12.27;;;11.07;;
1026;SDS011;502;48.746;9.214;2022-07-25T00:04:38;11.70;;;10.70;;
1026;SDS011;502;48.746;9.214;2022-07-25T00:07:05;12.70;;;11.50;;
1026;SDS011;502;48.746;9.214;2022-07-25T00:09:32;12.03;;;10.83;;
1026;SDS011;502;48.746;9.214;2022-07-25T00:11:59;12.37;;;11.10;;
1026;SDS011;502;48.746;9.214;2022-07-25T00:14:26;12.33;;;11.03;;
1026;SDS011;502;48.746;9.214;2022-07-25T00:16:52;14.77;;;10.70;;
1026;SDS011;502;48.746;9.214;2022-07-25T00:19:19;13.20;;;12.10;;
1026;SDS011;502;48.746;9.214;2022-07-25T00:21:47;11.77;;;10.77;;
1026;SDS011;502;48.746;9.214;2022-07-25T00:24:15;13.70;;;11.20;;
1026;SDS011;502;48.746;9.214;2022-07-25T00:26:42;12.17;;;11.00;;
1026;SDS011;502;48.746;9.214;2022-07-25T00:29:08;12.40;;;11.30;;
1026;SDS011;502;48.746;9.214;2022-07-25T00:31:35;10.90;;;10.00;;
1026;SDS011;502;48.746;9.214;2022-07-25T00:34:02;11.67;;;10.57;;
1026;SDS011;502;48.746;9.214;2022-07-25T00:36:29;11.80;;;10.67;;
1026;SDS011;502;48.746;9.214;2022-07-25T00:38:57;11.83;;;10.70;;
1026;SDS011;502;48.746;9.214;2022-07-25T00:41:24;13.43;;;11.37;;
1026;SDS011;502;48.746;9.214;2022-07-25T00:43:50;11.43;;;10.33;;
1026;SDS011;502;48.746;9.214;2022-07-25T00:46:17;12.63;;;11.53;;
1026;SDS011;502;48.746;9.214;2022-07-25T00:48:44;11.87;;;10.80;;
1026;SDS011;502;48.746;9.214;2022-07-25T00:51:10;11.67;;;10.63;;
1026;SDS011;502;48.746;9.214;2022-07-25T00:53:38;12.13;;;11.03;;
1026;SDS011;502;48.746;9.214;2022-07-25T00:56:06;12.50;;;11.43;;
1026;SDS011;502;48.746;9.214;2022-07-25T00:58:36;11.87;;;10.77;;
1026;SDS011;502;48.746;9.214;2022-07-25T01:01:03;11.97;;;10.77;;
1026;SDS011;502;48.746;9.214;2022-07-25T01:03:30;11.73;;;10.73;;
1026;SDS011;502;48.746;9.214;2022-07-25T01:05:56;11.33;;;10.33;;
1026;SDS011;502;48.746;9.214;2022-07-25T01:08:23;12.27;;;11.17;;
1026;SDS011;502;48.746;9.214;2022-07-25T01:10:50;11.63;;;10.63;;
1026;SDS011;502;48.746;9.214;2022-07-25T01:13:18;12.73;;;11.50;;
1026;SDS011;502;48.746;9.214;2022-07-25T01:15:45;12.43;;;11.33;;
1026;SDS011;502;48.746;9.214;2022-07-25T01:18:12;12.37;;;11.10;;
1026;SDS011;502;48.746;9.214;2022-07-25T01:20:40;12.07;;;10.97;;
1026;SDS011;502;48.746;9.214;2022-07-25T01:23:07;11.97;;;10.87;;
1026;SDS011;502;48.746;9.214;2022-07-25T01:25:34;13.37;;;12.07;;
1026;SDS011;502;48.746;9.214;2022-07-25T01:28:01;12.77;;;11.53;;
1026;SDS011;502;48.746;9.214;2022-07-25T01:30:27;13.07;;;11.90;;
1026;SDS011;502;48.746;9.214;2022-07-25T01:32:54;12.43;;;11.33;;
1026;SDS011;502;48.746;9.214;2022-07-25T01:35:21;12.27;;;11.17;;
1026;SDS011;502;48.746;9.214;2022-07-25T01:37:49;12.60;;;11.40;;
1026;SDS011;502;48.746;9.214;2022-07-25T01:40:16;13.37;;;12.10;;
1026;SDS011;502;48.746;9.214;2022-07-25T01:42:42;13.87;;;12.60;;
1026;SDS011;502;48.746;9.214;2022-07-25T01:45:10;13.50;;;12.20;;
1026;SDS011;502;48.746;9.214;2022-07-25T01:47:37;12.20;;;11.10;;
1026;SDS011;502;48.746;9.214;2022-07-25T01:50:04;13.40;;;12.10;;
1026;SDS011;502;48.746;9.214;2022-07-25T01:52:32;13.47;;;12.27;;
1026;SDS011;502;48.746;9.214;2022-07-25T01:55:00;14.07;;;12.67;;
1026;SDS011;502;48.746;9.214;2022-07-25T01:57:27;13.20;;;12.00;;
1026;SDS011;502;48.746;9.214;2022-07-25T01:59:54;14.67;;;13.30;;
1026;SDS011;502;48.746;9.214;2022-07-25T02:02:21;13.70;;;12.40;;
1026;SDS011;502;48.746;9.214;2022-07-25T02:04:47;14.37;;;12.90;;
1026;SDS011;502;48.746;9.214;2022-07-25T02:07:14;14.10;;;12.77;;
1026;SDS011;502;48.746;9.214;2022-07-25T02:09:41;14.73;;;13.23;;
1026;SDS011;502;48.746;9.214;2022-07-25T02:12:09;14.60;;;13.20;;
1026;SDS011;502;48.746;9.214;2022-07-25T02:14:36;14.40;;;13.00;;
1026;SDS011;502;48.746;9.214;2022-07-25T02:17:03;15.20;;;13.80;;
1026;SDS011;502;48.746;9.214;2022-07-25T02:19:30;14.97;;;13.57;;
1026;SDS011;502;48.746;9.214;2022-07-25T02:21:57;14.57;;;13.17;;
1026;SDS011;502;48.746;9.214;2022-07-25T02:24:23;14.73;;;13.30;;
1026;SDS011;502;48.746;9.214;2022-07-25T02:26:50;17.87;;;12.40;;
1026;SDS011;502;48.746;9.214;2022-07-25T02:29:27;14.90;;;13.40;;
1026;SDS011;502;48.746;9.214;2022-07-25T02:31:54;16.23;;;13.57;;
1026;SDS011;502;48.746;9.214;2022-07-25T02:34:20;13.97;;;12.67;;
1026;SDS011;502;48.746;9.214;2022-07-25T02:36:47;14.90;;;13.57;;
1026;SDS011;502;48.746;9.214;2022-07-25T02:39:14;13.27;;;12.17;;
1026;SDS011;502;48.746;9.214;2022-07-25T02:41:41;14.00;;;12.17;;
1026;SDS011;502;48.746;9.214;2022-07-25T02:44:08;14.80;;;13.30;;
1026;SDS011;502;48.746;9.214;2022-07-25T02:46:36;13.83;;;12.53;;
1026;SDS011;502;48.746;9.214;2022-07-25T02:49:03;13.43;;;12.03;;
1026;SDS011;502;48.746;9.214;2022-07-25T02:51:30;14.53;;;13.00;;
1026;SDS011;502;48.746;9.214;2022-07-25T02:53:56;13.50;;;12.10;;
1026;SDS011;502;48.746;9.214;2022-07-25T02:56:23;13.20;;;11.90;;
1026;SDS011;502;48.746;9.214;2022-07-25T02:58:51;13.13;;;11.80;;
1026;SDS011;502;48.746;9.214;2022-07-25T03:01:17;12.60;;;11.40;;
1026;SDS011;502;48.746;9.214;2022-07-25T03:03:46;12.63;;;11.33;;
1026;SDS011;502;48.746;9.214;2022-07-25T03:06:12;13.53;;;12.30;;
1026;SDS011;502;48.746;9.214;2022-07-25T03:08:39;13.63;;;12.33;;
1026;SDS011;502;48.746;9.214;2022-07-25T03:11:06;12.03;;;10.87;;
1026;SDS011;502;48.746;9.214;2022-07-25T03:13:32;13.57;;;12.17;;
1026;SDS011;502;48.746;9.214;2022-07-25T03:15:59;13.53;;;12.23;;
1026;SDS011;502;48.746;9.214;2022-07-25T03:18:26;13.80;;;12.50;;
1026;SDS011;502;48.746;9.214;2022-07-25T03:20:54;13.77;;;12.40;;
1026;SDS011;502;48.746;9.214;2022-07-25T03:23:20;12.50;;;11.20;;
1026;SDS011;502;48.746;9.214;2022-07-25T03:25:49;15.73;;;12.23;;
1026;SDS011;502;48.746;9.214;2022-07-25T03:28:15;13.50;;;12.13;;
1026;SDS011;502;48.746;9.214;2022-07-25T03:30:42;13.00;;;11.80;;
1026;SDS011;502;48.746;9.214;2022-07-25T03:33:09;13.20;;;11.90;;
1026;SDS011;502;48.746;9.214;2022-07-25T03:35:36;13.83;;;12.33;;
1026;SDS011;502;48.746;9.214;2022-07-25T03:38:04;13.10;;;11.90;;
1026;SDS011;502;48.746;9.214;2022-07-25T03:40:31;12.80;;;11.60;;
1026;SDS011;502;48.746;9.214;2022-07-25T03:42:58;13.73;;;12.43;;
1026;SDS011;502;48.746;9.214;2022-07-25T03:45:25;13.03;;;11.73;;
1026;SDS011;502;48.746;9.214;2022-07-25T03:47:52;14.03;;;12.60;;
1026;SDS011;502;48.746;9.214;2022-07-25T03:50:18;15.63;;;11.87;;
1026;SDS011;502;48.746;9.214;2022-07-25T03:52:45;14.20;;;12.30;;
1026;SDS011;502;48.746;9.214;2022-07-25T03:55:13;13.20;;;11.93;;
1026;SDS011;502;48.746;9.214;2022-07-25T03:57:40;13.10;;;11.80;;
1026;SDS011;502;48.746;9.214;2022-07-25T04:00:07;14.20;;;12.70;;
1026;SDS011;502;48.746;9.214;2022-07-25T04:02:36;13.23;;;12.03;;
1026;SDS011;502;48.746;9.214;2022-07-25T04:05:03;13.73;;;12.37;;
1026;SDS011;502;48.746;9.214;2022-07-25T04:07:31;13.27;;;12.00;;
1026;SDS011;502;48.746;9.214;2022-07-25T04:09:58;13.33;;;12.20;;
1026;SDS011;502;48.746;9.214;2022-07-25T04:12:26;14.17;;;12.77;;
1026;SDS011;502;48.746;9.214;2022-07-25T04:14:53;14.53;;;13.07;;
1026;SDS011;502;48.746;9.214;2022-07-25T04:17:19;14.90;;;13.17;;
1026;SDS011;502;48.746;9.214;2022-07-25T04:19:46;14.77;;;13.37;;
1026;SDS011;502;48.746;9.214;2022-07-25T04:22:13;13.53;;;12.13;;
1026;SDS011;502;48.746;9.214;2022-07-25T04:24:39;13.73;;;12.43;;
1026;SDS011;502;48.746;9.214;2022-07-25T04:27:08;12.90;;;11.80;;
1026;SDS011;502;48.746;9.214;2022-07-25T04:29:37;13.17;;;11.87;;
1026;SDS011;502;48.746;9.214;2022-07-25T04:32:04;13.30;;;12.10;;
1026;SDS011;502;48.746;9.214;2022-07-25T04:34:31;14.03;;;12.83;;
1026;SDS011;502;48.746;9.214;2022-07-25T04:36:59;13.67;;;12.17;;
1026;SDS011;502;48.746;9.214;2022-07-25T04:39:26;13.20;;;11.93;;
1026;SDS011;502;48.746;9.214;2022-07-25T04:41:52;14.90;;;13.50;;
1026;SDS011;502;48.746;9.214;2022-07-25T04:44:19;14.57;;;13.07;;
1026;SDS011;502;48.746;9.214;2022-07-25T04:46:47;14.70;;;13.23;;
1026;SDS011;502;48.746;9.214;2022-07-25T04:49:14;14.70;;;13.30;;
1026;SDS011;502;48.746;9.214;2022-07-25T04:51:41;13.93;;;12.53;;
1026;SDS011;502;48.746;9.214;2022-07-25T04:54:07;14.50;;;13.17;;
1026;SDS011;502;48.746;9.214;2022-07-25T04:56:34;14.10;;;12.80;;
1026;SDS011;502;48.746;9.214;2022-07-25T04:59:01;13.70;;;12.50;;
1026;SDS011;502;48.746;9.214;2022-07-25T05:01:27;14.83;;;12.10;;
1026;SDS011;502;48.746;9.214;2022-07-25T05:03:55;14.10;;;12.70;;
1026;SDS011;502;48.746;9.214;2022-07-25T05:06:22;13.37;;;12.17;;
1026;SDS011;502;48.746;9.214;2022-07-25T05:08:49;13.40;;;12.17;;
1026;SDS011;502;48.746;9.214;2022-07-25T05:11:15;13.93;;;12.63;;
1026;SDS011;502;48.746;9.214;2022-07-25T05:13:42;13.50;;;12.10;;
1026;SDS011;502;48.746;9.214;2022-07-25T05:16:09;13.37;;;11.97;;
1026;SDS011;502;48.746;9.214;2022-07-25T05:18:36;14.13;;;12.87;;
1026;SDS011;502;48.746;9.214;2022-07-25T05:21:04;12.53;;;11.43;;
1026;SDS011;502;48.746;9.214;2022-07-25T05:23:30;13.70;;;12.40;;
1026;SDS011;502;48.746;9.214;2022-07-25T05:25:57;13.67;;;12.37;;
1026;SDS011;502;48.746;9.214;2022-07-25T05:28:24;13.13;;;11.87;;
1026;SDS011;502;48.746;9.214;2022-07-25T05:30:50;13.67;;;12.57;;
1026;SDS011;502;48.746;9.214;2022-07-25T05:33:17;11.53;;;10.53;;
1026;SDS011;502;48.746;9.214;2022-07-25T05:35:44;13.60;;;12.27;;
1026;SDS011;502;48.746;9.214;2022-07-25T05:38:12;13.20;;;11.90;;
1026;SDS011;502;48.746;9.214;2022-07-25T05:40:38;13.77;;;11.40;;
1026;SDS011;502;48.746;9.214;2022-07-25T05:43:05;13.13;;;11.80;;
1026;SDS011;502;48.746;9.214;2022-07-25T05:45:32;13.87;;;12.47;;
1026;SDS011;502;48.746;9.214;2022-07-25T05:47:59;13.30;;;12.07;;
1026;SDS011;502;48.746;9.214;2022-07-25T05:50:25;13.50;;;12.30;;
1026;SDS011;502;48.746;9.214;2022-07-25T05:52:52;12.90;;;11.60;;
1026;SDS011;502;48.746;9.214;2022-07-25T05:55:20;12.67;;;11.47;;
1026;SDS011;502;48.746;9.214;2022-07-25T05:57:47;13.30;;;11.43;;
1026;SDS011;502;48.746;9.214;2022-07-25T06:00:14;12.83;;;11.60;;
1026;SDS011;502;48.746;9.214;2022-07-25T06:02:41;14.20;;;12.70;;
1026;SDS011;502;48.746;9.214;2022-07-25T06:05:08;14.50;;;13.10;;
1026;SDS011;502;48.746;9.214;2022-07-25T06:07:34;12.60;;;11.50;;
1026;SDS011;502;48.746;9.214;2022-07-25T06:10:01;14.10;;;12.70;;
1026;SDS011;502;48.746;9.214;2022-07-25T06:12:30;13.90;;;12.70;;
1026;SDS011;502;48.746;9.214;2022-07-25T06:14:57;14.10;;;12.73;;
1026;SDS011;502;48.746;9.214;2022-07-25T06:17:24;12.97;;;11.77;;
1026;SDS011;502;48.746;9.214;2022-07-25T06:19:51;13.17;;;11.83;;
1026;SDS011;502;48.746;9.214;2022-07-25T06:22:18;12.50;;;11.47;;
1026;SDS011;502;48.746;9.214;2022-07-25T06:24:45;13.17;;;11.87;;
1026;SDS011;502;48.746;9.214;2022-07-25T06:27:12;14.30;;;13.00;;
1026;SDS011;502;48.746;9.214;2022-07-25T06:29:40;13.40;;;11.50;;
1026;SDS011;502;48.746;9.214;2022-07-25T06:32:07;13.30;;;12.00;;
1026;SDS011;502;48.746;9.214;2022-07-25T06:34:33;12.57;;;11.37;;
1026;SDS011;502;48.746;9.214;2022-07-25T06:37:00;13.03;;;11.77;;
1026;SDS011;502;48.746;9.214;2022-07-25T06:39:27;12.80;;;11.70;;
1026;SDS011;502;48.746;9.214;2022-07-25T06:41:53;13.00;;;11.90;;
1026;SDS011;502;48.746;9.214;2022-07-25T06:44:25;14.27;;;11.60;;
1026;SDS011;502;48.746;9.214;2022-07-25T06:46:53;13.50;;;11.90;;
1026;SDS011;502;48.746;9.214;2022-07-25T06:49:20;13.43;;;12.27;;
1026;SDS011;502;48.746;9.214;2022-07-25T06:51:46;13.67;;;12.43;;
1026;SDS011;502;48.746;9.214;2022-07-25T06:54:13;12.83;;;11.73;;
1026;SDS011;502;48.746;9.214;2022-07-25T06:56:40;12.63;;;11.63;;
1026;SDS011;502;48.746;9.214;2022-07-25T06:59:06;13.30;;;12.20;;
1026;SDS011;502;48.746;9.214;2022-07-25T07:01:33;13.40;;;12.17;;
1026;SDS011;502;48.746;9.214;2022-07-25T07:04:02;12.87;;;11.70;;
1026;SDS011;502;48.746;9.214;2022-07-25T07:06:29;14.43;;;12.93;;
1026;SDS011;502;48.746;9.214;2022-07-25T07:08:56;13.03;;;11.83;;
1026;SDS011;502;48.746;9.214;2022-07-25T07:11:23;12.70;;;11.60;;
1026;SDS011;502;48.746;9.214;2022-07-25T07:16:57;13.13;;;11.80;;
1026;SDS011;502;48.746;9.214;2022-07-25T07:19:28;11.80;;;10.80;;
1026;SDS011;502;48.746;9.214;2022-07-25T07:21:55;13.40;;;12.13;;
1026;SDS011;502;48.746;9.214;2022-07-25T07:24:21;12.47;;;11.47;;
1026;SDS011;502;48.746;9.214;2022-07-25T07:26:48;12.80;;;11.60;;
1026;SDS011;502;48.746;9.214;2022-07-25T07:29:15;13.00;;;11.70;;
1026;SDS011;502;48.746;9.214;2022-07-25T07:31:42;14.13;;;12.63;;
1026;SDS011;502;48.746;9.214;2022-07-25T07:34:08;13.23;;;12.13;;
1026;SDS011;502;48.746;9.214;2022-07-25T07:36:36;12.83;;;11.80;;
1026;SDS011;502;48.746;9.214;2022-07-25T07:39:03;13.40;;;12.00;;
1026;SDS011;502;48.746;9.214;2022-07-25T07:41:30;13.30;;;12.20;;
1026;SDS011;502;48.746;9.214;2022-07-25T07:43:56;13.03;;;11.77;;
1026;SDS011;502;48.746;9.214;2022-07-25T07:46:23;12.17;;;11.13;;
1026;SDS011;502;48.746;9.214;2022-07-25T07:48:50;13.00;;;12.00;;
1026;SDS011;502;48.746;9.214;2022-07-25T07:51:17;12.23;;;11.23;;
1026;SDS011;502;48.746;9.214;2022-07-25T07:53:51;13.37;;;12.37;;
1026;SDS011;502;48.746;9.214;2022-07-25T07:56:35;13.03;;;11.93;;
1026;SDS011;502;48.746;9.214;2022-07-25T07:59:01;14.00;;;12.57;;
1026;SDS011;502;48.746;9.214;2022-07-25T08:01:29;11.70;;;10.80;;
1026;SDS011;502;48.746;9.214;2022-07-25T08:03:55;13.07;;;12.03;;
1026;SDS011;502;48.746;9.214;2022-07-25T08:06:22;13.13;;;12.00;;
1026;SDS011;502;48.746;9.214;2022-07-25T08:08:53;12.70;;;11.70;;
1026;SDS011;502;48.746;9.214;2022-07-25T08:11:20;13.00;;;12.00;;
1026;SDS011;502;48.746;9.214;2022-07-25T08:13:47;12.60;;;11.60;;
1026;SDS011;502;48.746;9.214;2022-07-25T08:16:13;14.00;;;12.70;;
1026;SDS011;502;48.746;9.214;2022-07-25T08:18:40;13.07;;;11.87;;
1026;SDS011;502;48.746;9.214;2022-07-25T08:21:07;13.50;;;12.50;;
1026;SDS011;502;48.746;9.214;2022-07-25T08:23:39;12.50;;;11.50;;
1026;SDS011;502;48.746;9.214;2022-07-25T08:26:07;13.47;;;12.30;;
1026;SDS011;502;48.746;9.214;2022-07-25T08:28:34;12.60;;;11.70;;
1026;SDS011;502;48.746;9.214;2022-07-25T08:31:01;13.50;;;12.50;;
1026;SDS011;502;48.746;9.214;2022-07-25T08:33:27;14.33;;;13.17;;
1026;SDS011;502;48.746;9.214;2022-07-25T08:35:54;12.30;;;11.23;;
1026;SDS011;502;48.746;9.214;2022-07-25T08:38:23;12.47;;;11.47;;
1026;SDS011;502;48.746;9.214;2022-07-25T08:40:50;12.87;;;11.83;;
1026;SDS011;502;48.746;9.214;2022-07-25T08:43:19;12.90;;;11.80;;
1026;SDS011;502;48.746;9.214;2022-07-25T08:45:46;14.37;;;13.27;;
1026;SDS011;502;48.746;9.214;2022-07-25T08:48:15;13.53;;;12.23;;
1026;SDS011;502;48.746;9.214;2022-07-25T08:50:43;14.13;;;12.93;;
1026;SDS011;502;48.746;9.214;2022-07-25T08:53:10;13.17;;;12.17;;
1026;SDS011;502;48.746;9.214;2022-07-25T08:55:37;14.43;;;12.87;;
1026;SDS011;502;48.746;9.214;2022-07-25T08:58:03;13.10;;;12.20;;
1026;SDS011;502;48.746;9.214;2022-07-25T09:00:32;12.20;;;11.30;;
1026;SDS011;502;48.746;9.214;2022-07-25T09:02:59;13.33;;;12.10;;
1026;SDS011;502;48.746;9.214;2022-07-25T09:05:27;12.67;;;11.70;;
1026;SDS011;502;48.746;9.214;2022-07-25T09:07:55;12.03;;;11.13;;
1026;SDS011;502;48.746;9.214;2022-07-25T09:10:23;12.27;;;11.27;;
1026;SDS011;502;48.746;9.214;2022-07-25T09:12:52;11.63;;;10.80;;
1026;SDS011;502;48.746;9.214;2022-07-25T09:15:23;12.20;;;11.30;;
1026;SDS011;502;48.746;9.214;2022-07-25T09:17:54;12.00;;;11.10;;
1026;SDS011;502;48.746;9.214;2022-07-25T09:20:21;11.77;;;10.87;;
1026;SDS011;502;48.746;9.214;2022-07-25T09:22:48;12.77;;;11.60;;
1026;SDS011;502;48.746;9.214;2022-07-25T09:25:20;11.63;;;10.73;;
1026;SDS011;502;48.746;9.214;2022-07-25T09:27:48;11.87;;;10.90;;
1026;SDS011;502;48.746;9.214;2022-07-25T09:30:15;11.80;;;10.80;;
1026;SDS011;502;48.746;9.214;2022-07-25T09:32:42;12.00;;;11.00;;
1026;SDS011;502;48.746;9.214;2022-07-25T09:35:10;11.37;;;10.57;;
1026;SDS011;502;48.746;9.214;2022-07-25T09:37:38;11.83;;;11.03;;
1026;SDS011;502;48.746;9.214;2022-07-25T09:40:10;11.75;;;10.75;;
1026;SDS011;502;48.746;9.214;2022-07-25T09:42:38;11.20;;;10.40;;
1026;SDS011;502;48.746;9.214;2022-07-25T09:45:07;10.60;;;9.80;;
1026;SDS011;502;48.746;9.214;2022-07-25T09:47:37;11.35;;;10.50;;
1026;SDS011;502;48.746;9.214;2022-07-25T09:50:16;11.45;;;10.65;;
1026;SDS011;502;48.746;9.214;2022-07-25T09:52:43;10.82;;;10.02;;
1026;SDS011;502;48.746;9.214;2022-07-25T09:55:11;11.85;;;11.02;;
1026;SDS011;502;48.746;9.214;2022-07-25T09:57:38;11.40;;;10.60;;
1026;SDS011;502;48.746;9.214;2022-07-25T10:00:05;11.35;;;10.55;;
1026;SDS011;502;48.746;9.214;2022-07-25T10:02:40;11.93;;;11.03;;
1026;SDS011;502;48.746;9.214;2022-07-25T10:05:13;12.07;;;11.17;;
1026;SDS011;502;48.746;9.214;2022-07-25T10:07:44;11.20;;;10.40;;
1026;SDS011;502;48.746;9.214;2022-07-25T10:10:20;12.10;;;11.17;;
1026;SDS011;502;48.746;9.214;2022-07-25T10:13:00;11.90;;;11.00;;
1026;SDS011;502;48.746;9.214;2022-07-25T10:15:38;10.53;;;9.73;;
1026;SDS011;502;48.746;9.214;2022-07-25T10:18:09;12.30;;;11.23;;
1026;SDS011;502;48.746;9.214;2022-07-25T10:20:37;12.23;;;11.23;;
1026;SDS011;502;48.746;9.214;2022-07-25T10:23:04;12.37;;;11.47;;
1026;SDS011;502;48.746;9.214;2022-07-25T10:25:42;12.30;;;11.30;;
1026;SDS011;502;48.746;9.214;2022-07-25T10:28:09;12.73;;;11.53;;
1026;SDS011;502;48.746;9.214;2022-07-25T10:30:37;12.00;;;10.90;;
1026;SDS011;502;48.746;9.214;2022-07-25T10:33:09;11.43;;;10.43;;
1026;SDS011;502;48.746;9.214;2022-07-25T10:35:38;11.50;;;10.60;;
1026;SDS011;502;48.746;9.214;2022-07-25T10:38:05;12.80;;;11.80;;
1026;SDS011;502;48.746;9.214;2022-07-25T10:40:33;11.17;;;10.40;;
1026;SDS011;502;48.746;9.214;2022-07-25T10:43:05;11.83;;;10.83;;
1026;SDS011;502;48.746;9.214;2022-07-25T10:45:35;11.87;;;10.97;;
1026;SDS011;502;48.746;9.214;2022-07-25T10:48:08;12.23;;;11.40;;
1026;SDS011;502;48.746;9.214;2022-07-25T10:50:50;12.03;;;11.10;;
1026;SDS011;502;48.746;9.214;2022-07-25T10:56:07;11.47;;;10.57;;
1026;SDS011;502;48.746;9.214;2022-07-25T10:58:45;11.90;;;11.00;;
1026;SDS011;502;48.746;9.214;2022-07-25T11:01:18;10.80;;;10.00;;
1026;SDS011;502;48.746;9.214;2022-07-25T11:03:46;11.93;;;10.83;;
1026;SDS011;502;48.746;9.214;2022-07-25T11:06:15;11.47;;;10.47;;
1026;SDS011;502;48.746;9.214;2022-07-25T11:08:45;12.53;;;11.40;;
1026;SDS011;502;48.746;9.214;2022-07-25T11:11:12;12.87;;;11.87;;
1026;SDS011;502;48.746;9.214;2022-07-25T11:13:39;12.13;;;11.07;;
1026;SDS011;502;48.746;9.214;2022-07-25T11:16:06;11.27;;;10.43;;
1026;SDS011;502;48.746;9.214;2022-07-25T11:18:35;11.63;;;10.73;;
1026;SDS011;502;48.746;9.214;2022-07-25T11:21:04;12.33;;;11.43;;
1026;SDS011;502;48.746;9.214;2022-07-25T11:23:33;11.20;;;10.40;;
1026;SDS011;502;48.746;9.214;2022-07-25T11:26:07;12.03;;;11.03;;
1026;SDS011;502;48.746;9.214;2022-07-25T11:28:38;12.27;;;11.03;;
1026;SDS011;502;48.746;9.214;2022-07-25T11:31:06;11.60;;;10.70;;
1026;SDS011;502;48.746;9.214;2022-07-25T11:33:35;12.83;;;11.23;;
1026;SDS011;502;48.746;9.214;2022-07-25T11:36:02;11.77;;;10.70;;
1026;SDS011;502;48.746;9.214;2022-07-25T11:38:29;12.53;;;11.57;;
1026;SDS011;502;48.746;9.214;2022-07-25T11:40:58;12.47;;;11.43;;
1026;SDS011;502;48.746;9.214;2022-07-25T11:43:25;12.40;;;11.40;;
1026;SDS011;502;48.746;9.214;2022-07-25T11:45:56;7.53;;;6.93;;
1026;SDS011;502;48.746;9.214;2022-07-25T11:48:28;10.40;;;9.40;;
1026;SDS011;502;48.746;9.214;2022-07-25T11:50:57;6.10;;;5.60;;
1026;SDS011;502;48.746;9.214;2022-07-25T11:53:24;5.70;;;5.20;;
1026;SDS011;502;48.746;9.214;2022-07-25T11:55:51;5.00;;;4.60;;
1026;SDS011;502;48.746;9.214;2022-07-25T11:58:19;9.17;;;6.67;;
1026;SDS011;502;48.746;9.214;2022-07-25T12:00:51;13.63;;;10.20;;
1026;SDS011;502;48.746;9.214;2022-07-25T12:03:20;9.90;;;9.10;;
1026;SDS011;502;48.746;9.214;2022-07-25T12:05:48;6.87;;;6.27;;
1026;SDS011;502;48.746;9.214;2022-07-25T12:08:15;6.67;;;6.13;;
1026;SDS011;502;48.746;9.214;2022-07-25T12:10:43;6.40;;;5.90;;
1026;SDS011;502;48.746;9.214;2022-07-25T12:13:21;6.20;;;5.70;;
1026;SDS011;502;48.746;9.214;2022-07-25T12:15:48;5.57;;;5.17;;
1026;SDS011;502;48.746;9.214;2022-07-25T12:18:15;5.90;;;5.40;;
1026;SDS011;502;48.746;9.214;2022-07-25T12:20:42;6.57;;;6.07;;
1026;SDS011;502;48.746;9.214;2022-07-25T12:23:10;6.40;;;5.90;;
1026;SDS011;502;48.746;9.214;2022-07-25T12:25:38;7.07;;;6.57;;
1026;SDS011;502;48.746;9.214;2022-07-25T12:28:06;6.90;;;6.30;;
1026;SDS011;502;48.746;9.214;2022-07-25T12:30:36;7.10;;;6.60;;
1026;SDS011;502;48.746;9.214;2022-07-25T12:33:04;7.13;;;6.50;;
1026;SDS011;502;48.746;9.214;2022-07-25T12:35:31;6.37;;;5.90;;
1026;SDS011;502;48.746;9.214;2022-07-25T12:37:58;6.93;;;6.33;;
1026;SDS011;502;48.746;9.214;2022-07-25T12:40:25;7.07;;;6.47;;
1026;SDS011;502;48.746;9.214;2022-07-25T12:42:51;7.73;;;7.10;;
1026;SDS011;502;48.746;9.214;2022-07-25T12:45:18;8.73;;;8.13;;
1026;SDS011;502;48.746;9.214;2022-07-25T12:47:47;8.67;;;7.87;;
1026;SDS011;502;48.746;9.214;2022-07-25T12:50:13;9.63;;;7.30;;
1026;SDS011;502;48.746;9.214;2022-07-25T12:52:42;8.93;;;8.13;;
1026;SDS011;502;48.746;9.214;2022-07-25T12:55:11;9.20;;;8.40;;
1026;SDS011;502;48.746;9.214;2022-07-25T12:57:41;9.20;;;8.37;;
1026;SDS011;502;48.746;9.214;2022-07-25T13:00:09;9.60;;;8.90;;
1026;SDS011;502;48.746;9.214;2022-07-25T13:02:37;9.87;;;8.83;;
1026;SDS011;502;48.746;9.214;2022-07-25T13:05:06;9.47;;;8.70;;
1026;SDS011;502;48.746;9.214;2022-07-25T13:07:33;9.67;;;8.87;;
1026;SDS011;502;48.746;9.214;2022-07-25T13:10:00;9.40;;;8.60;;
1026;SDS011;502;48.746;9.214;2022-07-25T13:12:27;10.13;;;9.33;;
1026;SDS011;502;48.746;9.214;2022-07-25T13:14:54;8.60;;;7.90;;
1026;SDS011;502;48.746;9.214;2022-07-25T13:17:21;8.83;;;8.13;;
1026;SDS011;502;48.746;9.214;2022-07-25T13:19:47;9.40;;;8.50;;
1026;SDS011;502;48.746;9.214;2022-07-25T13:22:16;9.33;;;8.60;;
1026;SDS011;502;48.746;9.214;2022-07-25T13:24:42;9.00;;;7.83;;
1026;SDS011;502;48.746;9.214;2022-07-25T13:27:09;9.57;;;8.87;;
1026;SDS011;502;48.746;9.214;2022-07-25T13:29:36;9.73;;;8.83;;
1026;SDS011;502;48.746;9.214;2022-07-25T13:32:03;8.73;;;8.03;;
1026;SDS011;502;48.746;9.214;2022-07-25T13:34:30;9.77;;;8.77;;
1026;SDS011;502;48.746;9.214;2022-07-25T13:36:57;8.73;;;8.03;;
1026;SDS011;502;48.746;9.214;2022-07-25T13:39:25;9.30;;;8.50;;
1026;SDS011;502;48.746;9.214;2022-07-25T13:41:52;9.10;;;8.27;;
1026;SDS011;502;48.746;9.214;2022-07-25T13:44:18;8.20;;;7.50;;
1026;SDS011;502;48.746;9.214;2022-07-25T13:46:45;8.07;;;7.47;;
1026;SDS011;502;48.746;9.214;2022-07-25T13:49:14;7.90;;;7.30;;
1026;SDS011;502;48.746;9.214;2022-07-25T13:51:41;7.87;;;7.27;;
1026;SDS011;502;48.746;9.214;2022-07-25T13:54:09;7.90;;;7.20;;
1026;SDS011;502;48.746;9.214;2022-07-25T13:56:37;8.47;;;7.77;;
1026;SDS011;502;48.746;9.214;2022-07-25T13:59:05;10.23;;;9.43;;
1026;SDS011;502;48.746;9.214;2022-07-25T14:01:32;9.77;;;8.87;;
1026;SDS011;502;48.746;9.214;2022-07-25T14:03:59;9.43;;;8.63;;
1026;SDS011;502;48.746;9.214;2022-07-25T14:06:25;9.47;;;8.57;;
1026;SDS011;502;48.746;9.214;2022-07-25T14:08:52;9.17;;;8.47;;
1026;SDS011;502;48.746;9.214;2022-07-25T14:11:19;9.93;;;9.07;;
1026;SDS011;502;48.746;9.214;2022-07-25T14:13:47;9.30;;;8.60;;
1026;SDS011;502;48.746;9.214;2022-07-25T14:16:15;8.67;;;8.07;;
1026;SDS011;502;48.746;9.214;2022-07-25T14:18:44;8.53;;;7.93;;
1026;SDS011;502;48.746;9.214;2022-07-25T14:21:10;9.20;;;8.47;;
1026;SDS011;502;48.746;9.214;2022-07-25T14:23:37;10.03;;;9.33;;
1026;SDS011;502;48.746;9.214;2022-07-25T14:26:04;9.67;;;8.90;;
1026;SDS011;502;48.746;9.214;2022-07-25T14:28:31;10.20;;;9.40;;
1026;SDS011;502;48.746;9.214;2022-07-25T14:30:59;9.17;;;8.47;;
1026;SDS011;502;48.746;9.214;2022-07-25T14:33:26;10.00;;;9.20;;
1026;SDS011;502;48.746;9.214;2022-07-25T14:35:52;10.87;;;9.97;;
1026;SDS011;502;48.746;9.214;2022-07-25T14:38:19;9.70;;;8.90;;
1026;SDS011;502;48.746;9.214;2022-07-25T14:40:46;10.30;;;9.20;;
1026;SDS011;502;48.746;9.214;2022-07-25T14:43:13;10.30;;;9.50;;
1026;SDS011;502;48.746;9.214;2022-07-25T14:45:39;11.70;;;9.97;;
1026;SDS011;502;48.746;9.214;2022-07-25T14:48:08;10.60;;;9.80;;
1026;SDS011;502;48.746;9.214;2022-07-25T14:50:34;10.60;;;9.60;;
1026;SDS011;502;48.746;9.214;2022-07-25T14:53:01;11.03;;;10.13;;
1026;SDS011;502;48.746;9.214;2022-07-25T14:55:28;11.27;;;10.47;;
1026;SDS011;502;48.746;9.214;2022-07-25T14:57:55;10.70;;;9.80;;
1026;SDS011;502;48.746;9.214;2022-07-25T15:00:22;11.07;;;10.17;;
1026;SDS011;502;48.746;9.214;2022-07-25T15:02:48;11.37;;;10.47;;
1026;SDS011;502;48.746;9.214;2022-07-25T15:05:17;10.67;;;9.70;;
1026;SDS011;502;48.746;9.214;2022-07-25T15:07:44;11.57;;;10.77;;
1026;SDS011;502;48.746;9.214;2022-07-25T15:10:11;10.33;;;9.33;;
1026;SDS011;502;48.746;9.214;2022-07-25T15:12:38;11.13;;;10.17;;
1026;SDS011;502;48.746;9.214;2022-07-25T15:15:05;10.40;;;9.33;;
1026;SDS011;502;48.746;9.214;2022-07-25T15:17:32;10.70;;;9.90;;